Terminal Aerodrome Forecast
Issued by NWS Boston, MA

Home | Current Version | Previous Version | Text Only | Print | Product List | Glossary On
Versions: 1 2 3 4 5 6 7 8 9 10 11 12 13 14 15 16 17 18 19 20 21 22 23 24 25 26 27 28 29
000
FTUS41 KBOX 241120
TAFORH
TAF
KORH 241120Z 2412/2512 16012G23KT 6SM -SHRA BR OVC006
     FM241500 17017G40KT P6SM VCSH OVC015 WS020/17040KT
     FM242000 17018G33KT 5SM SHRA VCTS OVC015CB WS020/17040KT
     FM250000 17018G35KT P6SM SHRA OVC015 WS020/17040KT
     FM250500 19017G29KT 2SM SHRA BR OVC003
     FM250900 21011G20KT 3SM SHRA BR OVC020=

USA.gov is the U.S. government's official web portal to all federal, state and local government web resources and services.